createdAt,value
2023-02-19T00:05:00.969Z,23.60
2023-02-19T00:11:09.864Z,23.70
2023-02-19T00:17:20.149Z,23.50
2023-02-19T00:23:31.666Z,23.40
2023-02-19T00:29:41.164Z,23.60
2023-02-19T00:35:50.933Z,23.90
2023-02-19T00:42:00.548Z,23.80
2023-02-19T00:48:10.619Z,23.60
2023-02-19T00:54:19.633Z,23.50
2023-02-19T01:00:30.107Z,23.70
2023-02-19T01:06:37.543Z,24.00
2023-02-19T01:12:51.307Z,23.80
2023-02-19T01:19:02.005Z,23.60
2023-02-19T01:25:12.281Z,23.50
2023-02-19T01:31:21.850Z,23.60
2023-02-19T01:37:31.510Z,23.80
2023-02-19T01:43:57.683Z,23.80
2023-02-19T01:50:10.776Z,23.60
2023-02-19T01:56:22.165Z,23.50
2023-02-19T02:02:34.195Z,23.30
2023-02-19T02:09:00.129Z,23.20
2023-02-19T02:21:55.567Z,23.20
2023-02-19T02:28:13.397Z,23.10
2023-02-19T02:34:25.779Z,23.10
2023-02-19T02:40:35.661Z,22.90
2023-02-19T02:46:47.053Z,23.00
2023-02-19T02:53:14.383Z,22.90
2023-02-19T02:59:23.181Z,22.90
2023-02-19T03:12:07.034Z,22.80
2023-02-19T03:18:33.141Z,22.70
2023-02-19T03:25:01.830Z,22.60
2023-02-19T03:31:11.290Z,22.70
2023-02-19T03:37:25.659Z,22.50
2023-02-19T03:43:39.088Z,22.50
2023-02-19T03:49:51.285Z,22.40
2023-02-19T03:56:08.168Z,22.40
2023-02-19T04:02:17.581Z,22.40
2023-02-19T04:08:30.059Z,22.30
2023-02-19T04:14:42.372Z,22.20
2023-02-19T04:20:50.476Z,22.20
2023-02-19T04:27:00.322Z,22.10
2023-02-19T04:33:09.535Z,22.10
2023-02-19T04:39:20.473Z,22.10
2023-02-19T04:45:31.340Z,22.00
2023-02-19T04:51:39.313Z,22.00
2023-02-19T04:57:51.706Z,21.90
2023-02-19T05:04:02.669Z,21.80
2023-02-19T05:10:14.742Z,21.80
2023-02-19T05:16:24.807Z,21.70
2023-02-19T05:22:37.811Z,21.70
2023-02-19T05:28:47.746Z,21.60
2023-02-19T05:34:56.744Z,21.50
2023-02-19T05:41:17.394Z,21.50
2023-02-19T05:47:30.236Z,21.50
2023-02-19T05:53:39.682Z,21.50
2023-02-19T05:59:50.273Z,21.40
2023-02-19T06:06:03.988Z,21.40
2023-02-19T06:12:13.203Z,21.40
2023-02-19T06:18:24.160Z,21.40
2023-02-19T06:24:31.725Z,21.30
2023-02-19T06:30:40.183Z,21.20
2023-02-19T06:36:52.730Z,21.20
2023-02-19T06:43:02.661Z,21.20
2023-02-19T06:49:13.319Z,21.40
2023-02-19T06:55:21.570Z,21.60
2023-02-19T07:01:28.937Z,21.50
2023-02-19T07:07:38.802Z,21.40
2023-02-19T07:13:47.802Z,21.30
2023-02-19T07:19:56.899Z,21.40
2023-02-19T07:26:08.401Z,21.70
2023-02-19T07:32:16.385Z,21.60
2023-02-19T07:38:27.448Z,21.40
2023-02-19T07:44:37.365Z,21.30
2023-02-19T07:50:45.481Z,21.30
2023-02-19T07:56:56.230Z,21.40
2023-02-19T08:03:05.971Z,21.70
2023-02-19T08:09:16.829Z,21.50
2023-02-19T08:15:27.412Z,21.30
2023-02-19T08:21:36.145Z,21.30
2023-02-19T08:27:45.355Z,21.50
2023-02-19T08:33:55.305Z,21.60
2023-02-19T08:40:06.122Z,21.50
2023-02-19T08:46:17.172Z,21.40
2023-02-19T08:52:29.663Z,21.30
2023-02-19T08:58:38.579Z,21.50
2023-02-19T09:04:47.752Z,21.70
2023-02-19T09:11:05.115Z,21.50
2023-02-19T09:17:14.155Z,21.30
2023-02-19T09:23:24.055Z,21.40
2023-02-19T09:29:31.718Z,21.60
2023-02-19T09:35:45.714Z,21.60
2023-02-19T09:41:54.587Z,21.50
2023-02-19T09:48:05.908Z,21.40
2023-02-19T09:54:16.475Z,21.40
2023-02-19T10:00:29.398Z,21.60
2023-02-19T10:06:40.306Z,21.60
2023-02-19T10:12:54.641Z,21.40
2023-02-19T10:19:03.916Z,21.30
2023-02-19T10:25:13.919Z,21.50
2023-02-19T10:31:23.781Z,21.70
2023-02-19T10:37:31.401Z,21.50
2023-02-19T10:43:44.982Z,21.40
2023-02-19T10:49:56.277Z,21.40
2023-02-19T10:56:12.950Z,21.40
2023-02-19T11:02:25.169Z,21.70
2023-02-19T11:08:36.303Z,21.60
2023-02-19T11:14:47.048Z,21.40
2023-02-19T11:20:56.244Z,21.30
2023-02-19T11:27:05.098Z,21.60
2023-02-19T11:33:36.184Z,21.60
2023-02-19T11:39:48.284Z,21.40
2023-02-19T11:46:03.522Z,21.40
2023-02-19T11:52:27.509Z,21.60
2023-02-19T12:05:30.258Z,21.50
2023-02-19T12:11:56.669Z,21.40
2023-02-19T12:18:42.497Z,21.40
2023-02-19T12:25:24.784Z,21.70
2023-02-19T12:31:50.578Z,22.00
2023-02-19T12:38:05.892Z,22.20
2023-02-19T12:44:17.444Z,22.40
2023-02-19T12:50:27.962Z,22.60
2023-02-19T12:56:38.787Z,22.80
2023-02-19T13:02:52.465Z,23.00
2023-02-19T13:09:07.369Z,23.20
2023-02-19T13:15:19.437Z,23.00
2023-02-19T13:21:46.283Z,22.80
2023-02-19T13:28:00.906Z,23.00
2023-02-19T13:34:11.207Z,23.10
2023-02-19T13:40:26.241Z,22.90
2023-02-19T13:46:42.716Z,23.10
2023-02-19T13:52:50.865Z,23.20
2023-02-19T13:59:06.153Z,23.50
2023-02-19T14:05:17.216Z,23.50
2023-02-19T14:11:48.705Z,23.20
2023-02-19T14:17:58.481Z,23.10
2023-02-19T14:24:08.939Z,23.00
2023-02-19T14:30:17.511Z,23.30
2023-02-19T14:36:33.456Z,23.60
2023-02-19T14:42:42.448Z,23.40
2023-02-19T14:48:51.939Z,23.30
2023-02-19T14:55:00.815Z,23.60
2023-02-19T15:01:11.975Z,23.80
2023-02-19T15:07:24.160Z,23.70
2023-02-19T15:13:35.624Z,23.50
2023-02-19T15:19:44.659Z,23.30
2023-02-19T15:25:54.641Z,23.30
2023-02-19T15:32:04.746Z,23.70
2023-02-19T15:38:14.040Z,24.00
2023-02-19T15:44:29.846Z,24.00
2023-02-19T15:50:39.855Z,23.90
2023-02-19T15:56:50.413Z,23.80
2023-02-19T16:03:02.989Z,23.70
2023-02-19T16:09:21.934Z,23.70
2023-02-19T16:15:30.290Z,23.70
2023-02-19T16:21:40.003Z,24.10
2023-02-19T16:27:49.756Z,24.30
2023-02-19T16:34:00.576Z,24.30
2023-02-19T16:40:46.056Z,24.10
2023-02-19T16:46:55.100Z,24.00
2023-02-19T16:53:04.661Z,23.90
2023-02-19T16:59:13.365Z,23.80
2023-02-19T17:05:22.007Z,23.90
2023-02-19T17:11:29.656Z,24.20
2023-02-19T17:17:39.550Z,24.00
2023-02-19T17:23:51.894Z,23.80
2023-02-19T17:30:03.099Z,23.70
2023-02-19T17:36:14.098Z,23.60
2023-02-19T17:42:24.106Z,23.80
2023-02-19T17:48:38.415Z,24.10
2023-02-19T17:54:47.513Z,24.30
2023-02-19T18:01:00.900Z,24.10
2023-02-19T18:07:13.948Z,23.90
2023-02-19T18:13:23.144Z,23.80
2023-02-19T18:19:31.434Z,23.80
2023-02-19T18:25:41.759Z,23.80
2023-02-19T18:31:51.817Z,23.90
2023-02-19T18:38:01.210Z,23.80
2023-02-19T18:44:11.780Z,23.90
2023-02-19T18:50:21.194Z,24.20
2023-02-19T18:56:31.399Z,24.10
2023-02-19T19:02:49.235Z,23.90
2023-02-19T19:08:55.050Z,23.70
2023-02-19T19:15:06.514Z,23.60
2023-02-19T19:21:16.325Z,23.60
2023-02-19T19:27:25.595Z,23.90
2023-02-19T19:33:34.188Z,23.90
2023-02-19T19:39:43.147Z,23.80
2023-02-19T19:45:54.020Z,23.70
2023-02-19T19:52:06.650Z,23.60
2023-02-19T19:58:19.065Z,23.60
2023-02-19T20:04:30.821Z,23.50
2023-02-19T20:10:41.201Z,23.70
2023-02-19T20:16:48.581Z,23.90
2023-02-19T20:22:57.481Z,23.80
2023-02-19T20:29:10.951Z,23.70
2023-02-19T20:35:25.100Z,23.50
2023-02-19T20:41:35.752Z,23.40
2023-02-19T20:47:46.927Z,23.30
2023-02-19T20:53:56.537Z,23.40
2023-02-19T21:00:06.242Z,23.70
2023-02-19T21:06:19.308Z,23.90
2023-02-19T21:12:28.800Z,24.00
2023-02-19T21:18:38.881Z,23.80
2023-02-19T21:24:54.517Z,23.60
2023-02-19T21:31:07.626Z,23.40
2023-02-19T21:37:19.773Z,23.30
2023-02-19T21:43:29.043Z,23.40
2023-02-19T21:49:38.049Z,23.70
2023-02-19T21:55:58.370Z,23.70
2023-02-19T22:02:03.056Z,23.60
2023-02-19T22:08:12.294Z,23.40
2023-02-19T22:14:21.025Z,23.30
2023-02-19T22:20:28.721Z,23.60
2023-02-19T22:26:39.835Z,23.70
2023-02-19T22:32:49.180Z,23.60
2023-02-19T22:39:01.071Z,23.40
2023-02-19T22:45:10.617Z,23.30
2023-02-19T22:51:19.350Z,23.20
2023-02-19T22:57:29.231Z,23.50
2023-02-19T23:03:42.122Z,23.70
2023-02-19T23:09:54.837Z,23.50
2023-02-19T23:16:06.800Z,23.30
2023-02-19T23:22:20.311Z,23.10
2023-02-19T23:28:29.337Z,23.10
2023-02-19T23:34:43.589Z,23.40
2023-02-19T23:40:54.996Z,23.70
2023-02-19T23:47:02.330Z,23.70
2023-02-19T23:53:12.861Z,23.60
2023-02-19T23:59:25.225Z,23.30
